Time;durP1;ratioP1;P1;durP2;ratioP2;P2;SDS_P1;SDS_P2;PMS_P1;PMS_P2;Temp;Humidity;BMP_temperature;BMP_pressure;BME280_temperature;BME280_humidity;BME280_pressure;Samples;Min_cycle;Max_cycle;Signal;HPM_P1;HPM_P2
2022/06/01 00:00:09;;;;;;;3.25;2.35;;;;;;;9.33;100.00;100406.56;5211995;28;20059;-73
2022/06/01 00:02:40;;;;;;;2.50;2.10;;;;;;;9.28;100.00;100405.03;5209616;28;20039;-76
2022/06/01 00:05:10;;;;;;;3.75;2.40;;;;;;;9.09;100.00;100406.50;5211689;28;20064;-74
2022/06/01 00:07:40;;;;;;;4.05;2.92;;;;;;;8.91;100.00;100401.88;5205046;28;20039;-74
2022/06/01 00:10:11;;;;;;;4.60;3.80;;;;;;;8.85;100.00;100402.09;5209974;28;20028;-73
2022/06/01 00:12:42;;;;;;;6.22;4.50;;;;;;;8.78;100.00;100408.41;5191562;28;20060;-73
2022/06/01 00:15:15;;;;;;;6.20;4.68;;;;;;;8.73;100.00;100399.00;5192577;28;20576;-74
2022/06/01 00:17:45;;;;;;;7.90;5.20;;;;;;;8.89;100.00;100395.88;5191892;28;20531;-74
2022/06/01 00:20:16;;;;;;;8.18;4.97;;;;;;;8.87;100.00;100400.28;5209395;28;20021;-75
2022/06/01 00:22:46;;;;;;;7.20;4.90;;;;;;;8.75;100.00;100411.06;5210422;28;20022;-73
2022/06/01 00:25:17;;;;;;;8.05;4.80;;;;;;;8.63;100.00;100411.47;5191923;28;20485;-73
2022/06/01 00:27:48;;;;;;;7.03;4.03;;;;;;;8.72;100.00;100405.13;5209959;28;20410;-75
2022/06/01 00:30:20;;;;;;;6.70;4.32;;;;;;;8.82;100.00;100407.41;5209391;28;20033;-74
2022/06/01 00:32:50;;;;;;;6.82;4.47;;;;;;;8.66;100.00;100413.97;5210386;28;20096;-74
2022/06/01 00:35:22;;;;;;;5.57;4.38;;;;;;;8.69;100.00;100411.28;5208960;28;20315;-74
2022/06/01 00:37:53;;;;;;;6.15;4.35;;;;;;;8.71;100.00;100414.69;5210850;28;20638;-75
2022/06/01 00:40:29;;;;;;;5.60;4.20;;;;;;;8.69;100.00;100408.66;5208978;28;20040;-75
2022/06/01 00:43:15;;;;;;;5.28;3.97;;;;;;;8.76;100.00;100411.94;5194112;28;20594;-74
2022/06/01 00:45:46;;;;;;;5.88;4.03;;;;;;;8.80;100.00;100409.19;5208421;28;20025;-74
2022/06/01 00:48:19;;;;;;;6.65;4.30;;;;;;;8.78;100.00;100416.22;5205922;28;20060;-74
2022/06/01 00:50:50;;;;;;;5.85;3.97;;;;;;;8.66;100.00;100407.91;5209274;28;20033;-75
2022/06/01 00:53:27;;;;;;;7.20;4.10;;;;;;;8.55;100.00;100417.81;5194138;28;20071;-74
2022/06/01 00:56:04;;;;;;;6.45;4.22;;;;;;;8.43;100.00;100416.44;5196506;28;20044;-74
2022/06/01 00:58:43;;;;;;;5.78;4.47;;;;;;;8.46;100.00;100418.06;5205737;28;20045;-73
2022/06/01 01:01:18;;;;;;;5.30;4.13;;;;;;;8.49;100.00;100416.22;5211403;28;20040;-74
2022/06/01 01:03:52;;;;;;;6.72;4.32;;;;;;;8.53;100.00;100414.41;5214045;28;20449;-74
2022/06/01 01:06:26;;;;;;;6.25;4.25;;;;;;;8.43;100.00;100416.44;5212824;28;20526;-74
2022/06/01 01:08:58;;;;;;;6.63;4.00;;;;;;;8.48;100.00;100419.75;5214496;28;20035;-74
2022/06/01 01:11:45;;;;;;;5.18;4.00;;;;;;;8.37;100.00;100411.38;5193830;28;20079;-74
2022/06/01 01:14:20;;;;;;;5.68;3.92;;;;;;;8.49;100.00;100412.75;5209201;28;20021;-74
2022/06/01 01:16:51;;;;;;;7.60;3.88;;;;;;;8.58;100.00;100415.09;5212325;28;20037;-74
2022/06/01 01:19:27;;;;;;;8.13;4.25;;;;;;;8.62;100.00;100409.75;5206766;28;20486;-74
2022/06/01 01:22:12;;;;;;;9.57;4.07;;;;;;;8.58;100.00;100405.53;5211788;28;20479;-73
2022/06/01 01:25:12;;;;;;;6.03;4.07;;;;;;;8.49;100.00;100400.59;5210783;28;20323;-73
2022/06/01 01:27:45;;;;;;;5.57;3.83;;;;;;;8.46;100.00;100403.31;5210582;28;20276;-73
2022/06/01 01:30:37;;;;;;;6.00;3.80;;;;;;;8.60;100.00;100411.56;5213217;28;20021;-74
2022/06/01 01:33:16;;;;;;;5.78;3.80;;;;;;;8.27;100.00;100416.91;5209566;28;20043;-74
2022/06/01 01:35:50;;;;;;;6.30;3.70;;;;;;;8.11;100.00;100405.19;5212819;28;20265;-73
2022/06/01 01:38:54;;;;;;;6.05;3.63;;;;;;;8.08;100.00;100397.47;5213822;28;20033;-76
2022/06/01 01:41:45;;;;;;;7.45;3.72;;;;;;;7.91;100.00;100397.09;5212394;28;20025;-74
2022/06/01 01:44:26;;;;;;;5.03;3.72;;;;;;;7.86;100.00;100394.59;5190328;28;20030;-75
2022/06/01 01:46:58;;;;;;;5.43;3.80;;;;;;;7.88;100.00;100391.97;5210709;28;20087;-73
2022/06/01 01:49:33;;;;;;;5.47;4.03;;;;;;;7.90;100.00;100387.56;5206802;28;20217;-72
2022/06/01 01:52:09;;;;;;;6.03;3.83;;;;;;;7.99;100.00;100382.09;5206362;28;20490;-74
2022/06/01 01:55:01;;;;;;;6.22;4.18;;;;;;;8.19;100.00;100372.88;5213680;28;20104;-73
2022/06/01 01:57:59;;;;;;;6.15;3.95;;;;;;;8.24;100.00;100370.97;5210610;28;20079;-75
2022/06/01 02:00:34;;;;;;;6.03;3.70;;;;;;;8.25;100.00;100372.69;5211257;28;20113;-75
2022/06/01 02:03:14;;;;;;;6.33;3.50;;;;;;;8.16;100.00;100367.72;5214237;28;20024;-74
2022/06/01 02:06:17;;;;;;;9.63;3.88;;;;;;;8.12;100.00;100370.44;5196363;28;20284;-74
2022/06/01 02:08:57;;;;;;;11.45;3.65;;;;;;;8.01;100.00;100352.53;5211106;28;20029;-74
2022/06/01 02:14:45;;;;;;;6.20;3.70;;;;;;;7.94;100.00;100339.75;5211188;28;20087;-74
2022/06/01 02:17:20;;;;;;;7.57;4.47;;;;;;;8.02;100.00;100333.44;5209610;28;20090;-74
2022/06/01 02:19:54;;;;;;;7.43;4.40;;;;;;;8.24;100.00;100337.13;5205002;28;20045;-75
2022/06/01 02:22:25;;;;;;;6.15;4.45;;;;;;;8.13;100.00;100339.19;5213865;28;20452;-74
2022/06/01 02:24:55;;;;;;;6.63;4.72;;;;;;;8.03;100.00;100337.75;5192479;28;20033;-75
2022/06/01 02:27:25;;;;;;;10.10;4.55;;;;;;;8.17;100.00;100337.31;5213247;28;20439;-74
2022/06/01 02:30:13;;;;;;;8.25;4.75;;;;;;;8.30;100.00;100331.75;5210662;28;20310;-74
2022/06/01 02:32:44;;;;;;;6.20;4.45;;;;;;;8.13;100.00;100341.78;5209754;28;20028;-75
2022/06/01 02:35:18;;;;;;;8.50;4.38;;;;;;;8.34;100.00;100341.19;5211637;28;20028;-73
2022/06/01 02:37:54;;;;;;;6.55;4.30;;;;;;;8.43;100.00;100343.50;5212210;28;20022;-74
2022/06/01 02:40:25;;;;;;;6.30;4.38;;;;;;;8.65;100.00;100346.28;5210434;28;20064;-74
2022/06/01 02:42:56;;;;;;;10.98;4.50;;;;;;;8.69;100.00;100358.34;5213382;28;20032;-75
2022/06/01 02:45:27;;;;;;;7.90;4.85;;;;;;;8.78;100.00;100353.69;5209513;28;20064;-74
2022/06/01 02:48:01;;;;;;;7.80;4.32;;;;;;;8.78;100.00;100353.69;5209188;28;20059;-74
2022/06/01 02:50:33;;;;;;;8.93;4.60;;;;;;;8.86;100.00;100359.50;5209832;28;20029;-71
2022/06/01 02:53:05;;;;;;;6.20;4.32;;;;;;;8.91;100.00;100354.97;5213017;28;20021;-74
2022/06/01 02:55:35;;;;;;;6.20;4.32;;;;;;;9.17;100.00;100357.59;5210326;28;20564;-76
2022/06/01 02:58:06;;;;;;;6.22;3.85;;;;;;;9.13;100.00;100365.56;5212136;28;20024;-74
2022/06/01 03:00:38;;;;;;;9.90;4.15;;;;;;;9.06;100.00;100370.13;5192038;28;20040;-74
2022/06/01 03:03:10;;;;;;;7.00;4.35;;;;;;;9.23;100.00;100367.81;5212639;28;20114;-74
2022/06/01 03:05:41;;;;;;;5.18;3.72;;;;;;;9.25;100.00;100359.03;5210658;28;20029;-74
2022/06/01 03:08:11;;;;;;;5.65;3.63;;;;;;;9.15;100.00;100360.22;5211301;28;20081;-72
2022/06/01 03:10:41;;;;;;;6.70;4.13;;;;;;;9.33;100.00;100356.19;5210533;28;20021;-74
2022/06/01 03:13:11;;;;;;;7.55;3.97;;;;;;;9.28;100.00;100353.72;5211637;28;20013;-74
2022/06/01 03:15:42;;;;;;;4.63;3.60;;;;;;;9.24;100.00;100348.66;5193004;28;20095;-73
2022/06/01 03:18:12;;;;;;;6.10;3.75;;;;;;;9.27;100.00;100353.75;5208621;28;20021;-74
2022/06/01 03:20:42;;;;;;;5.05;3.65;;;;;;;9.35;100.00;100362.19;5206335;28;20178;-74
2022/06/01 03:23:13;;;;;;;4.90;3.70;;;;;;;9.30;100.00;100359.72;5209539;28;20038;-76
2022/06/01 03:25:43;;;;;;;4.68;3.45;;;;;;;9.37;100.00;100357.78;5211541;28;20112;-74
2022/06/01 03:28:15;;;;;;;6.32;3.53;;;;;;;9.31;100.00;100360.59;5210595;28;20025;-74
2022/06/01 03:30:46;;;;;;;5.43;3.60;;;;;;;9.09;100.00;100354.38;5193282;28;20032;-74
2022/06/01 03:33:17;;;;;;;6.13;3.80;;;;;;;9.14;100.00;100357.69;5210901;28;20421;-74
2022/06/01 03:35:47;;;;;;;4.53;3.53;;;;;;;9.32;100.00;100359.69;5210833;28;20032;-75
2022/06/01 03:38:18;;;;;;;7.30;4.00;;;;;;;9.54;100.00;100365.88;5210918;28;20025;-75
2022/06/01 03:40:48;;;;;;;4.60;3.40;;;;;;;9.41;100.00;100357.63;5210901;28;20047;-75
2022/06/01 03:43:19;;;;;;;6.15;3.72;;;;;;;9.61;100.00;100362.13;5210210;28;20028;-75
2022/06/01 03:45:56;;;;;;;6.18;3.45;;;;;;;9.58;100.00;100368.31;5211457;28;20486;-74
2022/06/01 03:48:29;;;;;;;4.88;3.22;;;;;;;9.48;100.00;100371.31;5206441;28;20097;-75
2022/06/01 03:50:59;;;;;;;5.53;3.67;;;;;;;9.50;100.00;100365.09;5206364;28;20104;-73
2022/06/01 03:53:30;;;;;;;6.72;3.63;;;;;;;9.57;100.00;100373.56;5211956;28;20108;-74
2022/06/01 03:56:02;;;;;;;7.28;3.45;;;;;;;9.43;100.00;100373.19;5207072;28;20029;-74
2022/06/01 03:58:33;;;;;;;5.13;3.55;;;;;;;9.67;100.00;100373.19;5210533;28;20116;-74
2022/06/01 04:01:06;;;;;;;5.47;3.20;;;;;;;9.61;100.00;100380.38;5209043;28;20129;-74
2022/06/01 04:03:36;;;;;;;5.47;3.65;;;;;;;9.70;100.00;100377.47;5211124;28;20031;-74
2022/06/01 04:06:06;;;;;;;6.25;3.42;;;;;;;9.68;100.00;100371.47;5208396;28;20440;-75
2022/06/01 04:08:37;;;;;;;4.88;3.55;;;;;;;9.86;100.00;100370.81;5191447;28;20327;-74
2022/06/01 04:11:07;;;;;;;4.88;3.25;;;;;;;9.86;100.00;100379.47;5206467;28;20025;-74
2022/06/01 04:13:37;;;;;;;9.68;3.70;;;;;;;9.97;100.00;100384.34;5201740;28;20090;-75
2022/06/01 04:16:08;;;;;;;6.57;3.57;;;;;;;10.01;100.00;100375.47;5187773;28;20390;-75
2022/06/01 04:18:38;;;;;;;5.47;3.42;;;;;;;10.02;100.00;100377.22;5202693;28;20700;-74
2022/06/01 04:21:08;;;;;;;4.30;3.53;;;;;;;9.97;100.00;100379.94;5204945;28;20029;-75
2022/06/01 04:23:39;;;;;;;5.45;3.40;;;;;;;9.87;100.00;100388.16;5190874;28;20033;-74
2022/06/01 04:26:09;;;;;;;4.07;3.03;;;;;;;10.03;100.00;100390.19;5206404;28;20594;-74
2022/06/01 04:28:39;;;;;;;5.25;3.58;;;;;;;9.85;100.00;100400.41;5190774;28;20029;-75
2022/06/01 04:31:09;;;;;;;4.07;3.10;;;;;;;10.19;100.00;100406.16;5207783;28;20036;-75
2022/06/01 04:33:42;;;;;;;4.72;3.30;;;;;;;10.32;100.00;100396.97;5209055;28;20329;-74
2022/06/01 04:36:12;;;;;;;4.95;3.47;;;;;;;10.26;100.00;100405.03;5209064;28;20040;-75
2022/06/01 04:38:43;;;;;;;4.63;3.40;;;;;;;10.34;100.00;100398.59;5209778;28;20028;-74
2022/06/01 04:41:13;;;;;;;7.22;3.60;;;;;;;10.38;100.00;100400.19;5209884;28;20033;-74
2022/06/01 04:43:43;;;;;;;4.65;3.28;;;;;;;10.32;100.00;100402.19;5209428;28;20033;-74
2022/06/01 04:46:13;;;;;;;4.63;3.40;;;;;;;10.34;100.00;100396.00;5209696;28;20492;-72
2022/06/01 04:48:44;;;;;;;5.53;3.38;;;;;;;10.51;100.00;100392.75;5205413;28;20314;-74
2022/06/01 04:51:15;;;;;;;4.17;3.67;;;;;;;10.72;100.00;100397.16;5207298;28;20035;-74
2022/06/01 04:53:45;;;;;;;5.13;3.83;;;;;;;11.08;100.00;100391.31;5209865;28;20271;-74
2022/06/01 04:56:16;;;;;;;7.05;4.50;;;;;;;11.20;100.00;100389.06;5209376;28;20331;-74
2022/06/01 04:58:46;;;;;;;6.15;4.18;;;;;;;11.26;100.00;100385.34;5208980;28;20021;-74
2022/06/01 05:01:16;;;;;;;5.60;4.00;;;;;;;11.14;100.00;100380.59;5209865;28;20048;-74
2022/06/01 05:03:48;;;;;;;5.97;4.40;;;;;;;11.45;100.00;100381.88;5209221;28;20427;-74
2022/06/01 05:06:18;;;;;;;8.30;4.65;;;;;;;11.39;100.00;100382.13;5209879;28;20364;-74
2022/06/01 05:08:48;;;;;;;7.47;4.47;;;;;;;11.42;100.00;100386.41;5208514;28;20037;-74
2022/06/01 05:11:20;;;;;;;6.05;4.40;;;;;;;11.52;100.00;100387.69;5209828;28;20048;-75
2022/06/01 05:13:50;;;;;;;6.90;4.97;;;;;;;11.72;100.00;100390.34;5209912;28;20025;-75
2022/06/01 05:16:20;;;;;;;7.70;4.68;;;;;;;11.94;100.00;100385.91;5208545;28;20460;-75
2022/06/01 05:18:51;;;;;;;7.32;4.60;;;;;;;12.04;100.00;100382.81;5201779;28;20095;-74
2022/06/01 05:21:22;;;;;;;6.10;4.63;;;;;;;13.33;100.00;100381.84;5205045;28;20025;-74
2022/06/01 05:23:52;;;;;;;5.00;3.70;;;;;;;14.75;100.00;100381.28;5189207;28;20038;-74
2022/06/01 05:26:22;;;;;;;5.78;3.08;;;;;;;16.36;93.43;100376.03;5209679;28;20025;-74
2022/06/01 05:28:53;;;;;;;4.17;2.87;;;;;;;18.62;81.88;100364.09;5206547;28;20037;-75
2022/06/01 05:31:23;;;;;;;5.93;2.87;;;;;;;18.32;78.39;100370.72;5209709;28;20279;-76
2022/06/01 05:33:53;;;;;;;3.85;2.28;;;;;;;19.69;77.75;100364.84;5185480;28;20741;-74
2022/06/01 05:36:24;;;;;;;5.40;3.13;;;;;;;20.46;71.41;100372.94;5209046;28;20037;-75
2022/06/01 05:38:54;;;;;;;4.25;2.95;;;;;;;20.11;73.74;100364.25;5210437;28;20306;-73
2022/06/01 05:41:24;;;;;;;4.40;2.93;;;;;;;19.92;72.55;100364.78;5208146;28;20021;-75
2022/06/01 05:43:55;;;;;;;3.72;2.67;;;;;;;22.01;67.92;100364.31;5210282;28;20029;-73
2022/06/01 05:46:26;;;;;;;4.47;3.15;;;;;;;21.41;68.67;100367.66;5208174;28;20025;-76
2022/06/01 05:48:56;;;;;;;5.55;3.10;;;;;;;22.16;66.20;100360.34;5209670;28;20405;-75
2022/06/01 05:51:27;;;;;;;4.93;3.10;;;;;;;22.24;67.93;100355.22;5212111;28;20033;-74
2022/06/01 05:53:57;;;;;;;4.93;3.45;;;;;;;19.82;72.72;100377.06;5211110;28;20029;-75
2022/06/01 05:56:28;;;;;;;7.30;4.03;;;;;;;18.52;78.31;100378.91;5214164;28;20040;-74
2022/06/01 05:58:58;;;;;;;6.47;4.10;;;;;;;19.44;74.15;100371.16;5210620;28;20418;-74
2022/06/01 06:01:28;;;;;;;7.75;4.15;;;;;;;19.48;77.17;100377.91;5214461;28;20028;-74
2022/06/01 06:03:59;;;;;;;6.95;4.10;;;;;;;18.60;78.74;100376.59;5209938;28;20126;-74
2022/06/01 06:06:29;;;;;;;7.63;4.60;;;;;;;18.10;80.69;100386.34;5187516;28;20033;-75
2022/06/01 06:09:04;;;;;;;6.50;3.80;;;;;;;18.56;78.63;100390.16;5213169;28;20505;-75
2022/06/01 06:11:37;;;;;;;8.48;4.00;;;;;;;18.59;77.01;100380.19;5207643;28;20035;-75
2022/06/01 06:14:08;;;;;;;6.28;3.75;;;;;;;18.77;78.72;100390.28;5206790;28;20034;-71
2022/06/01 06:16:46;;;;;;;8.00;4.07;;;;;;;18.86;75.95;100386.13;5206452;28;20454;-75
2022/06/01 06:19:18;;;;;;;8.15;4.13;;;;;;;19.07;77.56;100389.91;5190667;28;20375;-75
2022/06/01 06:21:48;;;;;;;6.18;3.60;;;;;;;19.31;78.06;100393.41;5195036;28;20033;-74
2022/06/01 06:24:20;;;;;;;7.47;3.90;;;;;;;19.71;78.33;100390.31;5211804;28;20037;-74
2022/06/01 06:26:51;;;;;;;4.35;3.05;;;;;;;19.23;77.67;100388.66;5210435;28;20025;-75
2022/06/01 06:29:21;;;;;;;7.50;3.42;;;;;;;19.62;77.11;100393.66;5213183;28;20064;-74
2022/06/01 06:31:51;;;;;;;5.57;3.07;;;;;;;18.33;77.13;100394.41;5209405;28;20064;-75
2022/06/01 06:34:21;;;;;;;3.70;2.77;;;;;;;17.75;78.11;100402.00;5213600;28;20575;-75
2022/06/01 06:36:53;;;;;;;5.63;2.92;;;;;;;17.15;82.21;100406.00;5211325;28;20340;-74
2022/06/01 06:39:24;;;;;;;4.75;3.22;;;;;;;16.24;85.90;100409.22;5207395;28;20056;-72
2022/06/01 06:41:54;;;;;;;5.00;2.90;;;;;;;17.21;83.32;100410.91;5208492;28;20064;-76
2022/06/01 06:44:24;;;;;;;4.22;2.80;;;;;;;17.24;84.67;100409.84;5209889;28;20521;-73
2022/06/01 06:46:55;;;;;;;5.13;2.78;;;;;;;16.70;85.23;100412.56;5212961;28;20490;-74
2022/06/01 06:49:25;;;;;;;5.53;3.03;;;;;;;16.87;84.56;100414.03;5186531;28;20107;-73
2022/06/01 06:51:56;;;;;;;6.32;3.53;;;;;;;17.07;82.32;100415.38;5191644;28;20039;-74
2022/06/01 06:54:27;;;;;;;5.40;3.17;;;;;;;16.86;83.74;100409.69;5208131;28;20035;-75
2022/06/01 06:56:57;;;;;;;5.55;3.78;;;;;;;16.19;83.71;100419.22;5209085;28;20545;-74
2022/06/01 06:59:27;;;;;;;6.70;3.67;;;;;;;16.52;85.40;100419.81;5209345;28;20459;-74
2022/06/01 07:01:58;;;;;;;5.60;4.18;;;;;;;15.68;91.78;100419.69;5173107;28;20063;-75
2022/06/01 07:04:28;;;;;;;7.35;4.30;;;;;;;16.35;85.87;100421.81;5211114;28;20457;-74
2022/06/01 07:06:58;;;;;;;5.57;4.50;;;;;;;17.03;83.59;100422.66;5208715;28;20029;-76
2022/06/01 07:09:29;;;;;;;7.60;4.33;;;;;;;17.23;80.12;100419.56;5210563;28;20291;-74
2022/06/01 07:11:59;;;;;;;6.78;4.40;;;;;;;17.84;80.04;100417.22;5199030;28;20311;-75
2022/06/01 07:14:30;;;;;;;6.03;4.50;;;;;;;16.60;85.01;100425.47;5208630;28;20493;-76
2022/06/01 07:17:01;;;;;;;4.93;3.90;;;;;;;17.66;81.78;100422.91;5207775;28;20334;-75
2022/06/01 07:19:31;;;;;;;8.02;4.57;;;;;;;17.26;80.54;100429.06;5202409;28;20490;-75
2022/06/01 07:22:02;;;;;;;5.65;4.10;;;;;;;16.86;82.65;100427.31;5208062;28;20112;-76
2022/06/01 07:24:32;;;;;;;8.05;4.70;;;;;;;16.66;85.38;100434.78;5193203;28;20055;-75
2022/06/01 07:27:02;;;;;;;7.57;4.85;;;;;;;16.39;87.87;100437.34;5207188;28;20037;-76
2022/06/01 07:29:33;;;;;;;8.20;5.22;;;;;;;16.48;85.88;100438.56;5211907;28;20032;-75
2022/06/01 07:32:03;;;;;;;8.63;5.00;;;;;;;16.93;83.95;100429.47;5208546;28;20108;-76
2022/06/01 07:34:34;;;;;;;8.38;5.13;;;;;;;17.69;77.77;100425.34;5211022;28;20346;-73
2022/06/01 07:43:05;;;;;;;10.07;4.73;;;;;;;18.53;76.22;100428.25;5189037;28;20109;-72
2022/06/01 07:45:34;;;;;;;7.47;4.60;;;;;;;21.22;69.68;100403.88;5204946;28;20516;-72
2022/06/01 07:48:06;;;;;;;5.75;3.63;;;;;;;22.27;66.03;100413.53;5210218;28;20466;-72
2022/06/01 07:50:37;;;;;;;4.30;3.33;;;;;;;23.22;62.17;100412.94;5191361;28;20037;-72
2022/06/01 07:53:09;;;;;;;6.18;3.22;;;;;;;21.65;65.47;100423.31;5210359;28;20413;-72
2022/06/01 07:55:41;;;;;;;5.65;3.40;;;;;;;23.64;60.05;100413.53;5209205;28;20033;-72
2022/06/01 07:58:11;;;;;;;6.05;3.22;;;;;;;23.06;59.79;100419.75;5209973;28;20493;-70
2022/06/01 08:00:42;;;;;;;5.05;3.80;;;;;;;23.20;60.06;100422.91;5210268;28;20033;-72
2022/06/01 08:03:15;;;;;;;4.80;3.13;;;;;;;24.08;59.06;100415.63;5209844;28;20029;-72
2022/06/01 08:05:45;;;;;;;7.20;3.80;;;;;;;23.08;60.61;100426.66;5211264;28;20112;-71
2022/06/01 08:08:15;;;;;;;6.23;3.57;;;;;;;23.43;58.61;100423.50;5208968;28;20107;-72
2022/06/01 08:10:46;;;;;;;5.53;3.33;;;;;;;24.80;58.74;100423.69;5209665;28;20271;-71
2022/06/01 08:13:17;;;;;;;6.07;3.10;;;;;;;24.34;57.06;100424.69;5209238;28;20780;-72
2022/06/01 08:15:49;;;;;;;4.35;3.38;;;;;;;24.55;57.34;100426.19;5191999;28;20032;-72
2022/06/01 08:18:21;;;;;;;4.75;3.35;;;;;;;23.53;59.66;100435.84;5206404;28;20036;-72
2022/06/01 08:20:52;;;;;;;5.45;3.53;;;;;;;24.88;57.04;100429.16;5205218;28;20248;-73
2022/06/01 08:23:25;;;;;;;5.18;3.67;;;;;;;25.13;55.96;100432.97;5210481;28;20029;-73
2022/06/01 08:25:56;;;;;;;5.28;3.78;;;;;;;24.61;57.95;100430.13;5187123;28;20504;-72
2022/06/01 08:28:26;;;;;;;5.80;3.83;;;;;;;23.43;57.98;100429.69;5208686;28;20063;-73
2022/06/01 08:30:57;;;;;;;5.45;3.60;;;;;;;22.33;60.45;100435.16;5207870;28;20029;-72
2022/06/01 08:33:30;;;;;;;4.93;3.97;;;;;;;21.83;63.93;100433.28;5192852;28;20067;-72
2022/06/01 08:36:00;;;;;;;6.53;3.95;;;;;;;22.14;61.33;100435.03;5210128;28;20021;-72
2022/06/01 08:38:31;;;;;;;7.15;4.03;;;;;;;22.25;60.37;100436.78;5206399;28;20040;-73
2022/06/01 08:41:04;;;;;;;5.03;3.40;;;;;;;23.13;61.00;100427.09;5209632;28;20029;-72
2022/06/01 08:43:50;;;;;;;4.28;3.35;;;;;;;25.13;56.97;100423.09;5205193;28;20498;-72
2022/06/01 08:46:22;;;;;;;4.57;2.95;;;;;;;26.06;57.89;100420.84;5208643;28;20463;-72
2022/06/01 08:48:58;;;;;;;6.07;3.60;;;;;;;24.72;56.31;100422.75;5201756;28;20042;-73
2022/06/01 08:51:30;;;;;;;5.13;3.60;;;;;;;23.16;58.11;100431.34;5205138;28;20073;-72
2022/06/01 08:54:01;;;;;;;6.80;3.33;;;;;;;23.27;60.84;100426.72;5204410;28;20021;-72
2022/06/01 08:56:41;;;;;;;7.07;4.45;;;;;;;22.04;61.68;100433.28;5210712;28;20028;-72
2022/06/01 08:59:30;;;;;;;5.07;3.50;;;;;;;21.59;60.61;100427.28;5208949;28;20368;-71
2022/06/01 09:02:22;;;;;;;5.43;3.60;;;;;;;20.84;62.02;100432.69;5203446;28;20479;-72
2022/06/01 09:05:18;;;;;;;4.90;3.30;;;;;;;21.92;62.21;100426.34;5190085;28;20025;-72
2022/06/01 09:08:11;;;;;;;5.13;2.90;;;;;;;21.45;63.06;100435.59;5207032;28;20049;-73
2022/06/01 09:11:10;;;;;;;4.95;3.50;;;;;;;21.53;63.09;100426.97;5206554;28;20025;-73
2022/06/01 09:14:01;;;;;;;4.88;3.33;;;;;;;23.12;59.35;100417.41;5206512;28;20037;-71
2022/06/01 09:16:44;;;;;;;4.15;2.78;;;;;;;23.52;57.88;100417.34;5188759;28;20076;-73
2022/06/01 09:19:20;;;;;;;5.30;2.50;;;;;;;23.66;58.52;100409.75;5208982;28;20382;-73
2022/06/01 09:24:59;;;;;;;3.65;2.80;;;;;;;23.96;56.29;100404.25;5204395;28;20083;-72
2022/06/01 09:27:38;;;;;;;5.07;2.63;;;;;;;22.70;59.39;100412.34;5214320;28;20482;-72
2022/06/01 09:30:20;;;;;;;3.88;2.80;;;;;;;23.30;57.95;100409.56;5212589;28;20364;-72
2022/06/01 09:33:31;;;;;;;3.72;2.85;;;;;;;23.09;58.52;100415.00;5211458;28;20407;-73
2022/06/01 09:36:07;;;;;;;4.75;3.00;;;;;;;20.94;62.16;100428.34;5187724;28;20076;-72
2022/06/01 09:38:46;;;;;;;4.22;3.30;;;;;;;19.98;66.60;100440.44;5213179;28;20063;-72
2022/06/01 09:41:19;;;;;;;4.63;3.40;;;;;;;20.82;63.79;100429.28;5213566;28;20021;-71
2022/06/01 09:44:01;;;;;;;7.63;3.20;;;;;;;20.28;63.77;100420.34;5213211;28;20032;-73
2022/06/01 09:46:47;;;;;;;3.90;2.85;;;;;;;21.83;62.16;100411.13;5206694;28;20029;-71
2022/06/01 09:49:21;;;;;;;3.60;2.67;;;;;;;20.53;63.85;100428.13;5211735;28;20383;-75
2022/06/01 09:51:55;;;;;;;5.50;3.70;;;;;;;20.08;65.24;100423.72;5214015;28;20298;-75
2022/06/01 09:54:30;;;;;;;6.88;3.30;;;;;;;19.48;67.16;100412.38;5210308;28;20025;-75
2022/06/01 09:57:27;;;;;;;3.63;2.85;;;;;;;21.80;62.71;100408.75;5205792;28;20021;-73
2022/06/01 10:08:30;;;;;;;2.70;1.90;;;;;;;22.49;57.36;100414.25;5205350;28;20060;-73
2022/06/01 10:11:17;;;;;;;4.13;2.03;;;;;;;21.15;58.44;100419.50;5213517;28;20494;-73
2022/06/01 10:13:51;;;;;;;3.42;1.98;;;;;;;20.75;59.16;100423.59;5211578;28;20271;-73
2022/06/01 10:16:47;;;;;;;2.67;1.67;;;;;;;20.05;61.74;100431.91;5210968;28;20039;-73
2022/06/01 10:19:25;;;;;;;3.25;1.75;;;;;;;19.08;62.64;100447.22;5192658;28;20548;-72
2022/06/01 10:22:05;;;;;;;1.58;0.88;;;;;;;17.50;66.71;100470.63;5211627;28;20061;-72
2022/06/01 10:24:48;;;;;;;2.88;0.57;;;;;;;16.49;71.23;100479.84;5209176;28;20042;-72
2022/06/01 10:27:22;;;;;;;1.80;0.70;;;;;;;16.27;75.98;100476.78;5210638;28;20031;-72
2022/06/01 10:30:21;;;;;;;1.42;0.57;;;;;;;15.82;79.55;100472.44;5213094;28;20025;-72
2022/06/01 10:33:05;;;;;;;0.98;0.50;;;;;;;15.66;79.97;100479.53;5192074;28;20132;-71
2022/06/01 10:35:40;;;;;;;2.42;0.80;;;;;;;16.07;78.19;100466.56;5207196;28;20312;-72
2022/06/01 10:38:19;;;;;;;0.63;0.50;;;;;;;16.57;78.06;100473.13;5211687;28;20516;-71
2022/06/01 10:40:59;;;;;;;0.93;0.50;;;;;;;16.94;75.67;100475.22;5194216;28;20650;-72
2022/06/01 10:43:54;;;;;;;0.68;0.50;;;;;;;17.26;73.86;100471.34;5209203;28;20044;-72
2022/06/01 10:46:47;;;;;;;1.00;0.57;;;;;;;17.12;72.80;100463.47;5210793;28;20035;-72
2022/06/01 10:49:48;;;;;;;1.15;0.40;;;;;;;17.31;71.93;100467.47;5210037;28;20029;-72
2022/06/01 10:52:31;;;;;;;2.13;0.50;;;;;;;17.48;72.18;100469.88;5209484;28;20035;-72
2022/06/01 10:55:23;;;;;;;1.20;0.43;;;;;;;18.07;69.22;100455.31;5206329;28;20506;-72
2022/06/01 10:57:57;;;;;;;1.42;0.50;;;;;;;18.38;67.23;100454.97;5209399;28;20029;-72
2022/06/01 11:00:41;;;;;;;1.27;0.60;;;;;;;18.70;69.44;100442.97;5195349;28;20029;-72
2022/06/01 11:03:22;;;;;;;0.82;0.60;;;;;;;18.38;68.20;100450.50;5208060;28;20033;-72
2022/06/01 11:06:22;;;;;;;3.25;1.30;;;;;;;18.27;67.34;100447.75;5209964;28;20040;-72
2022/06/01 11:09:09;;;;;;;1.70;1.10;;;;;;;18.24;68.77;100447.09;5193221;28;20071;-72
2022/06/01 11:12:04;;;;;;;1.15;0.90;;;;;;;18.23;69.73;100438.31;5208949;28;20485;-72
2022/06/01 11:15:02;;;;;;;1.98;1.10;;;;;;;17.87;71.04;100437.31;5191290;28;20509;-72
2022/06/01 11:17:35;;;;;;;2.50;1.40;;;;;;;18.76;69.44;100430.97;5204898;28;20037;-72
2022/06/01 11:20:33;;;;;;;2.80;1.23;;;;;;;19.07;67.25;100430.47;5211776;28;20035;-73
2022/06/01 11:23:14;;;;;;;4.05;1.90;;;;;;;19.13;65.62;100426.53;5212524;28;20025;-73
2022/06/01 11:26:08;;;;;;;1.77;1.45;;;;;;;19.10;66.20;100427.59;5208267;28;20032;-72
2022/06/01 11:28:59;;;;;;;2.35;1.55;;;;;;;19.32;64.32;100419.81;5205971;28;20425;-72
2022/06/01 11:31:30;;;;;;;3.95;1.48;;;;;;;19.37;71.51;100416.81;5192379;28;20029;-72
2022/06/01 11:34:13;;;;;;;2.40;1.30;;;;;;;19.35;69.47;100408.97;5208708;28;20021;-72
2022/06/01 11:37:11;;;;;;;2.17;1.33;;;;;;;19.36;66.62;100425.72;5192733;28;20032;-72
2022/06/01 11:39:50;;;;;;;2.35;1.10;;;;;;;19.44;67.40;100424.19;5200217;28;20196;-72
2022/06/01 11:42:21;;;;;;;2.90;1.20;;;;;;;19.55;65.49;100424.25;5209394;28;20036;-72
2022/06/01 11:44:59;;;;;;;1.87;1.20;;;;;;;19.33;67.16;100418.84;5208350;28;20273;-73
2022/06/01 11:47:35;;;;;;;1.92;1.15;;;;;;;19.38;65.02;100414.06;5186600;28;20124;-72
2022/06/01 11:50:16;;;;;;;;;;;;;;;19.28;65.70;100418.31;5204118;28;20037;-72
2022/06/01 11:53:01;;;;;;;4.35;1.70;;;;;;;19.31;65.92;100418.09;5204499;28;19913;-72
2022/06/01 11:55:34;;;;;;;2.28;1.63;;;;;;;19.12;64.98;100416.91;5206986;28;20033;-72
2022/06/01 11:58:33;;;;;;;3.40;1.60;;;;;;;19.48;64.21;100409.75;5211266;28;20021;-70
2022/06/01 12:01:14;;;;;;;2.22;1.35;;;;;;;20.00;67.47;100419.91;5177352;28;20037;-72
2022/06/01 12:03:52;;;;;;;4.38;1.60;;;;;;;20.35;65.42;100412.75;5192675;28;20040;-76
2022/06/01 12:06:50;;;;;;;3.95;1.80;;;;;;;20.12;64.64;100416.38;5210223;28;20066;-71
2022/06/01 12:09:41;;;;;;;2.05;1.60;;;;;;;19.75;63.84;100414.81;5207870;28;20033;-72
2022/06/01 12:12:36;;;;;;;3.45;1.70;;;;;;;19.81;64.58;100417.81;5188819;28;20318;-72
2022/06/01 12:15:39;;;;;;;3.20;1.70;;;;;;;20.49;66.38;100409.88;5204436;28;20140;-72
2022/06/01 12:18:12;;;;;;;3.20;1.85;;;;;;;20.24;66.48;100410.09;5191084;28;20076;-72
2022/06/01 12:20:47;;;;;;;3.67;2.00;;;;;;;20.13;65.78;100410.91;5209300;28;20056;-72
2022/06/01 12:29:04;;;;;;;6.38;2.78;;;;;;;19.52;67.58;100416.53;5208423;28;20609;-72